Teriberka, Russia
Current Conditions -  °F | °C
As of 1:30 AM on Friday 21 Nov 2014 (Local Time) from ULMM Reporting Station
Broken Clouds Broken Clouds  
Wind Chill: 19°   Ceiling: 700
Heat Index: 27°   Visibility: 6mi
Dew Point: 23°   Wind: 7mph
Humidity: 86%   Direction: 250°WSW
Pressure: 30.27"   Gusts: NA
Location:  69.16°N, 35.18°E
Report Text: ULMM 202230Z 25003MPS 9999 BKN007 BKN080 M03/M05 Q1025 NOSIG RMK OBST OBSC QFE761 31690145
Loading
Personal Weather Stations






























Interactive Weather Map New forecast layout! Learn more

10-Day Weather Forecast

Advertisements
Track Severe Weather on mobile